sensor_id;sensor_type;location;lat;lon;timestamp;pressure;altitude;pressure_sealevel;temperature;humidity
40872;BME280;26591;43.264;26.940;2024-01-15T00:01:07;98372.53;;;2.02;49.78
40872;BME280;26591;43.264;26.940;2024-01-15T00:03:32;98374.41;;;1.69;50.50
40872;BME280;26591;43.264;26.940;2024-01-15T00:05:58;98380.91;;;1.96;50.59
40872;BME280;26591;43.264;26.940;2024-01-15T00:08:23;98374.13;;;1.93;49.73
40872;BME280;26591;43.264;26.940;2024-01-15T00:10:49;98378.72;;;1.80;50.88
40872;BME280;26591;43.264;26.940;2024-01-15T00:13:14;98377.66;;;1.61;50.74
40872;BME280;26591;43.264;26.940;2024-01-15T00:15:44;98379.88;;;1.66;50.45
40872;BME280;26591;43.264;26.940;2024-01-15T00:18:22;98384.88;;;1.79;50.63
40872;BME280;26591;43.264;26.940;2024-01-15T00:20:48;98384.47;;;1.95;50.37
40872;BME280;26591;43.264;26.940;2024-01-15T00:23:13;98382.88;;;2.25;49.94
40872;BME280;26591;43.264;26.940;2024-01-15T00:25:40;98386.78;;;2.40;50.00
40872;BME280;26591;43.264;26.940;2024-01-15T00:28:06;98381.94;;;2.36;49.56
40872;BME280;26591;43.264;26.940;2024-01-15T00:30:31;98387.88;;;2.17;50.21
40872;BME280;26591;43.264;26.940;2024-01-15T00:32:57;98380.09;;;2.26;50.01
40872;BME280;26591;43.264;26.940;2024-01-15T00:35:22;98383.94;;;2.22;50.12
40872;BME280;26591;43.264;26.940;2024-01-15T00:37:48;98379.81;;;1.98;50.24
40872;BME280;26591;43.264;26.940;2024-01-15T00:40:13;98382.81;;;1.94;50.00
40872;BME280;26591;43.264;26.940;2024-01-15T00:42:39;98380.63;;;1.78;50.64
40872;BME280;26591;43.264;26.940;2024-01-15T00:45:04;98376.44;;;1.87;50.96
40872;BME280;26591;43.264;26.940;2024-01-15T00:47:31;98376.81;;;2.03;50.55
40872;BME280;26591;43.264;26.940;2024-01-15T00:49:57;98373.78;;;2.29;49.96
40872;BME280;26591;43.264;26.940;2024-01-15T00:52:22;98369.63;;;2.48;50.23
40872;BME280;26591;43.264;26.940;2024-01-15T00:54:48;98371.44;;;2.47;49.20
40872;BME280;26591;43.264;26.940;2024-01-15T00:57:14;98370.19;;;2.51;49.34
40872;BME280;26591;43.264;26.940;2024-01-15T00:59:39;98367.56;;;2.51;49.56
40872;BME280;26591;43.264;26.940;2024-01-15T01:02:05;98362.84;;;2.35;49.81
40872;BME280;26591;43.264;26.940;2024-01-15T01:04:31;98361.91;;;2.15;49.97
40872;BME280;26591;43.264;26.940;2024-01-15T01:06:59;98366.59;;;2.42;50.26
40872;BME280;26591;43.264;26.940;2024-01-15T01:09:24;98366.38;;;2.55;49.60
40872;BME280;26591;43.264;26.940;2024-01-15T01:11:50;98360.88;;;2.58;49.21
40872;BME280;26591;43.264;26.940;2024-01-15T01:14:15;98359.22;;;2.57;49.24
40872;BME280;26591;43.264;26.940;2024-01-15T01:16:41;98361.34;;;2.73;49.17
40872;BME280;26591;43.264;26.940;2024-01-15T01:22:12;98343.63;;;2.77;49.69
40872;BME280;26591;43.264;26.940;2024-01-15T01:24:38;98343.66;;;2.97;49.32
40872;BME280;26591;43.264;26.940;2024-01-15T01:27:03;98339.00;;;3.00;48.75
40872;BME280;26591;43.264;26.940;2024-01-15T01:29:29;98341.00;;;2.87;49.66
40872;BME280;26591;43.264;26.940;2024-01-15T01:31:54;98334.06;;;3.07;49.04
40872;BME280;26591;43.264;26.940;2024-01-15T01:34:21;98337.22;;;3.20;49.23
40872;BME280;26591;43.264;26.940;2024-01-15T01:36:47;98339.84;;;3.20;48.52
40872;BME280;26591;43.264;26.940;2024-01-15T01:39:13;98341.50;;;3.22;48.94
40872;BME280;26591;43.264;26.940;2024-01-15T01:41:38;98331.72;;;3.14;48.79
40872;BME280;26591;43.264;26.940;2024-01-15T01:44:04;98334.34;;;3.14;48.78
40872;BME280;26591;43.264;26.940;2024-01-15T01:46:32;98339.84;;;3.20;48.79
40872;BME280;26591;43.264;26.940;2024-01-15T01:48:58;98334.72;;;3.19;48.99
40872;BME280;26591;43.264;26.940;2024-01-15T01:51:28;98337.91;;;3.32;48.99
40872;BME280;26591;43.264;26.940;2024-01-15T01:53:54;98332.53;;;3.14;48.55
40872;BME280;26591;43.264;26.940;2024-01-15T01:56:23;98341.53;;;2.71;48.97
40872;BME280;26591;43.264;26.940;2024-01-15T01:58:48;98338.06;;;2.61;49.62
40872;BME280;26591;43.264;26.940;2024-01-15T02:01:15;98334.50;;;2.62;49.10
40872;BME280;26591;43.264;26.940;2024-01-15T02:03:41;98338.72;;;2.53;49.49
40872;BME280;26591;43.264;26.940;2024-01-15T02:06:06;98332.00;;;2.60;49.13
40872;BME280;26591;43.264;26.940;2024-01-15T02:08:32;98333.34;;;2.54;49.69
40872;BME280;26591;43.264;26.940;2024-01-15T02:10:57;98322.88;;;2.44;49.89
40872;BME280;26591;43.264;26.940;2024-01-15T02:13:23;98327.94;;;2.36;49.83
40872;BME280;26591;43.264;26.940;2024-01-15T02:15:48;98332.75;;;2.41;49.88
40872;BME280;26591;43.264;26.940;2024-01-15T02:18:14;98327.25;;;2.34;50.45
40872;BME280;26591;43.264;26.940;2024-01-15T02:20:39;98327.88;;;2.57;50.18
40872;BME280;26591;43.264;26.940;2024-01-15T02:23:14;98318.34;;;2.47;49.25
40872;BME280;26591;43.264;26.940;2024-01-15T02:25:46;98320.91;;;2.37;50.14
40872;BME280;26591;43.264;26.940;2024-01-15T02:28:16;98321.81;;;2.47;49.93
40872;BME280;26591;43.264;26.940;2024-01-15T02:30:42;98322.66;;;2.57;49.66
40872;BME280;26591;43.264;26.940;2024-01-15T02:33:09;98319.34;;;2.24;50.20
40872;BME280;26591;43.264;26.940;2024-01-15T02:35:35;98315.78;;;2.56;49.35
40872;BME280;26591;43.264;26.940;2024-01-15T02:38:05;98312.63;;;2.63;49.53
40872;BME280;26591;43.264;26.940;2024-01-15T02:40:31;98305.66;;;2.73;49.35
40872;BME280;26591;43.264;26.940;2024-01-15T02:42:56;98311.94;;;2.61;49.45
40872;BME280;26591;43.264;26.940;2024-01-15T02:45:25;98301.91;;;2.56;50.23
40872;BME280;26591;43.264;26.940;2024-01-15T02:47:50;98305.31;;;2.56;50.09
40872;BME280;26591;43.264;26.940;2024-01-15T02:50:16;98301.31;;;2.52;49.85
40872;BME280;26591;43.264;26.940;2024-01-15T02:52:42;98296.38;;;2.49;50.96
40872;BME280;26591;43.264;26.940;2024-01-15T02:55:08;98306.53;;;2.42;51.08
40872;BME280;26591;43.264;26.940;2024-01-15T02:57:33;98300.41;;;2.32;50.99
40872;BME280;26591;43.264;26.940;2024-01-15T02:59:59;98297.00;;;2.32;50.46
40872;BME280;26591;43.264;26.940;2024-01-15T03:02:25;98296.63;;;2.46;50.67
40872;BME280;26591;43.264;26.940;2024-01-15T03:04:50;98300.31;;;2.43;50.80
40872;BME280;26591;43.264;26.940;2024-01-15T03:07:16;98297.66;;;2.65;50.08
40872;BME280;26591;43.264;26.940;2024-01-15T03:09:41;98301.38;;;2.72;50.07
40872;BME280;26591;43.264;26.940;2024-01-15T03:12:07;98296.59;;;2.77;50.54
40872;BME280;26591;43.264;26.940;2024-01-15T03:14:32;98294.81;;;2.87;49.93
40872;BME280;26591;43.264;26.940;2024-01-15T03:16:58;98297.84;;;3.02;49.85
40872;BME280;26591;43.264;26.940;2024-01-15T03:19:23;98295.09;;;3.04;50.08
40872;BME280;26591;43.264;26.940;2024-01-15T03:21:49;98294.53;;;3.10;50.19
40872;BME280;26591;43.264;26.940;2024-01-15T03:24:14;98288.22;;;3.13;49.80
40872;BME280;26591;43.264;26.940;2024-01-15T03:27:08;98288.78;;;3.16;50.14
40872;BME280;26591;43.264;26.940;2024-01-15T03:29:34;98286.16;;;3.16;50.46
40872;BME280;26591;43.264;26.940;2024-01-15T03:32:00;98289.47;;;3.09;49.91
40872;BME280;26591;43.264;26.940;2024-01-15T03:34:25;98289.59;;;3.07;50.04
40872;BME280;26591;43.264;26.940;2024-01-15T03:36:51;98288.84;;;2.66;50.52
40872;BME280;26591;43.264;26.940;2024-01-15T03:39:18;98287.66;;;2.39;51.02
40872;BME280;26591;43.264;26.940;2024-01-15T03:41:44;98280.13;;;2.46;50.88
40872;BME280;26591;43.264;26.940;2024-01-15T03:44:10;98287.72;;;2.58;51.03
40872;BME280;26591;43.264;26.940;2024-01-15T03:46:35;98292.91;;;2.49;51.33
40872;BME280;26591;43.264;26.940;2024-01-15T03:49:01;98289.88;;;2.43;50.50
40872;BME280;26591;43.264;26.940;2024-01-15T03:51:26;98288.94;;;2.54;51.11
40872;BME280;26591;43.264;26.940;2024-01-15T03:53:54;98292.13;;;2.58;51.34
40872;BME280;26591;43.264;26.940;2024-01-15T03:56:20;98291.66;;;2.43;51.77
40872;BME280;26591;43.264;26.940;2024-01-15T03:58:45;98287.25;;;2.43;51.39
40872;BME280;26591;43.264;26.940;2024-01-15T04:01:11;98287.88;;;2.57;51.53
40872;BME280;26591;43.264;26.940;2024-01-15T04:03:36;98290.19;;;2.60;50.80
40872;BME280;26591;43.264;26.940;2024-01-15T04:06:05;98299.50;;;2.43;50.94
40872;BME280;26591;43.264;26.940;2024-01-15T04:08:31;98301.31;;;2.52;50.86
40872;BME280;26591;43.264;26.940;2024-01-15T04:10:56;98300.34;;;2.53;50.96
40872;BME280;26591;43.264;26.940;2024-01-15T04:13:22;98293.47;;;2.42;51.79
40872;BME280;26591;43.264;26.940;2024-01-15T04:15:47;98290.94;;;2.31;52.12
40872;BME280;26591;43.264;26.940;2024-01-15T04:18:13;98301.28;;;2.33;51.43
40872;BME280;26591;43.264;26.940;2024-01-15T04:21:16;98306.91;;;2.38;51.68
40872;BME280;26591;43.264;26.940;2024-01-15T04:23:42;98297.69;;;2.34;52.14
40872;BME280;26591;43.264;26.940;2024-01-15T04:26:07;98305.06;;;1.97;52.83
40872;BME280;26591;43.264;26.940;2024-01-15T04:28:33;98299.41;;;2.23;54.12
40872;BME280;26591;43.264;26.940;2024-01-15T04:31:29;98302.06;;;2.33;52.77
40872;BME280;26591;43.264;26.940;2024-01-15T04:33:55;98307.50;;;2.41;53.08
40872;BME280;26591;43.264;26.940;2024-01-15T04:36:20;98306.34;;;2.34;52.84
40872;BME280;26591;43.264;26.940;2024-01-15T04:38:46;98315.59;;;2.38;52.10
40872;BME280;26591;43.264;26.940;2024-01-15T04:41:12;98311.81;;;2.31;52.19
40872;BME280;26591;43.264;26.940;2024-01-15T04:43:38;98317.34;;;2.38;51.63
40872;BME280;26591;43.264;26.940;2024-01-15T04:46:05;98311.44;;;2.36;52.32
40872;BME280;26591;43.264;26.940;2024-01-15T04:48:32;98309.25;;;2.41;52.54
40872;BME280;26591;43.264;26.940;2024-01-15T04:50:57;98307.59;;;2.40;52.76
40872;BME280;26591;43.264;26.940;2024-01-15T04:53:23;98313.09;;;2.37;52.04
40872;BME280;26591;43.264;26.940;2024-01-15T04:55:48;98309.66;;;2.36;52.98
40872;BME280;26591;43.264;26.940;2024-01-15T04:58:14;98318.03;;;2.40;53.36
40872;BME280;26591;43.264;26.940;2024-01-15T05:00:39;98309.50;;;2.38;53.07
40872;BME280;26591;43.264;26.940;2024-01-15T05:03:04;98315.31;;;2.10;53.07
40872;BME280;26591;43.264;26.940;2024-01-15T05:05:32;98304.94;;;2.20;53.74
40872;BME280;26591;43.264;26.940;2024-01-15T05:07:58;98305.69;;;2.11;54.13
40872;BME280;26591;43.264;26.940;2024-01-15T05:10:24;98308.13;;;2.03;54.09
40872;BME280;26591;43.264;26.940;2024-01-15T05:12:49;98300.84;;;1.75;54.55
40872;BME280;26591;43.264;26.940;2024-01-15T05:18:36;98295.16;;;1.49;55.96
40872;BME280;26591;43.264;26.940;2024-01-15T05:21:04;98299.00;;;1.45;55.83
40872;BME280;26591;43.264;26.940;2024-01-15T05:23:34;98292.25;;;1.63;56.57
40872;BME280;26591;43.264;26.940;2024-01-15T05:25:59;98293.78;;;1.12;57.55
40872;BME280;26591;43.264;26.940;2024-01-15T05:28:25;98289.66;;;1.10;58.02
40872;BME280;26591;43.264;26.940;2024-01-15T05:30:50;98295.78;;;1.20;58.32
40872;BME280;26591;43.264;26.940;2024-01-15T05:33:16;98295.06;;;1.18;57.53
40872;BME280;26591;43.264;26.940;2024-01-15T05:35:42;98293.75;;;1.24;57.82
40872;BME280;26591;43.264;26.940;2024-01-15T05:38:08;98287.63;;;1.46;56.78
40872;BME280;26591;43.264;26.940;2024-01-15T05:40:34;98291.50;;;1.73;55.96
40872;BME280;26591;43.264;26.940;2024-01-15T05:42:59;98282.50;;;1.87;56.80
40872;BME280;26591;43.264;26.940;2024-01-15T05:45:27;98285.81;;;1.89;55.64
40872;BME280;26591;43.264;26.940;2024-01-15T05:47:53;98289.16;;;2.01;55.52
40872;BME280;26591;43.264;26.940;2024-01-15T05:50:18;98291.19;;;2.18;54.94
40872;BME280;26591;43.264;26.940;2024-01-15T05:52:44;98282.28;;;2.31;53.83
40872;BME280;26591;43.264;26.940;2024-01-15T05:55:09;98283.31;;;2.59;53.83
40872;BME280;26591;43.264;26.940;2024-01-15T05:57:36;98281.56;;;2.59;53.58
40872;BME280;26591;43.264;26.940;2024-01-15T06:00:01;98291.09;;;3.00;53.26
40872;BME280;26591;43.264;26.940;2024-01-15T06:02:27;98291.09;;;3.39;53.03
40872;BME280;26591;43.264;26.940;2024-01-15T06:04:53;98290.94;;;3.70;51.77
40872;BME280;26591;43.264;26.940;2024-01-15T06:07:18;98292.66;;;3.99;51.11
40872;BME280;26591;43.264;26.940;2024-01-15T06:09:44;98291.59;;;3.92;50.70
40872;BME280;26591;43.264;26.940;2024-01-15T06:12:10;98296.53;;;3.95;49.29
40872;BME280;26591;43.264;26.940;2024-01-15T06:14:35;98278.75;;;3.99;49.79
40872;BME280;26591;43.264;26.940;2024-01-15T06:17:01;98285.53;;;4.29;50.42
40872;BME280;26591;43.264;26.940;2024-01-15T06:19:26;98283.41;;;4.70;50.33
40872;BME280;26591;43.264;26.940;2024-01-15T06:21:52;98290.34;;;5.08;47.77
40872;BME280;26591;43.264;26.940;2024-01-15T06:24:17;98294.31;;;5.12;50.83
40872;BME280;26591;43.264;26.940;2024-01-15T06:26:46;98298.94;;;5.54;49.38
40872;BME280;26591;43.264;26.940;2024-01-15T06:29:12;98286.34;;;5.84;47.31
40872;BME280;26591;43.264;26.940;2024-01-15T06:31:37;98282.25;;;6.08;47.12
40872;BME280;26591;43.264;26.940;2024-01-15T06:34:15;98279.41;;;6.36;46.25
40872;BME280;26591;43.264;26.940;2024-01-15T06:36:40;98279.56;;;6.77;46.44
40872;BME280;26591;43.264;26.940;2024-01-15T06:39:06;98287.56;;;7.18;45.06
40872;BME280;26591;43.264;26.940;2024-01-15T06:41:32;98280.16;;;7.55;43.51
40872;BME280;26591;43.264;26.940;2024-01-15T06:43:57;98279.16;;;7.81;43.16
40872;BME280;26591;43.264;26.940;2024-01-15T06:46:32;98282.09;;;7.94;42.30
40872;BME280;26591;43.264;26.940;2024-01-15T06:48:57;98265.81;;;7.74;43.73
40872;BME280;26591;43.264;26.940;2024-01-15T06:51:23;98262.38;;;7.57;43.54
40872;BME280;26591;43.264;26.940;2024-01-15T06:53:48;98269.56;;;7.97;42.56
40872;BME280;26591;43.264;26.940;2024-01-15T06:56:14;98266.28;;;8.43;42.92
40872;BME280;26591;43.264;26.940;2024-01-15T06:58:39;98263.53;;;8.76;40.80
40872;BME280;26591;43.264;26.940;2024-01-15T07:01:05;98264.84;;;8.80;40.97
40872;BME280;26591;43.264;26.940;2024-01-15T07:03:31;98267.44;;;8.48;40.95
40872;BME280;26591;43.264;26.940;2024-01-15T07:05:56;98261.38;;;7.75;42.58
40872;BME280;26591;43.264;26.940;2024-01-15T07:08:22;98264.84;;;7.51;43.05
40872;BME280;26591;43.264;26.940;2024-01-15T07:10:47;98263.88;;;7.43;43.77
40872;BME280;26591;43.264;26.940;2024-01-15T07:13:13;98260.09;;;7.38;42.98
40872;BME280;26591;43.264;26.940;2024-01-15T07:15:38;98258.28;;;7.38;42.62
40872;BME280;26591;43.264;26.940;2024-01-15T07:18:04;98263.72;;;7.53;43.16
40872;BME280;26591;43.264;26.940;2024-01-15T07:20:30;98271.28;;;7.48;42.66
40872;BME280;26591;43.264;26.940;2024-01-15T07:22:55;98263.22;;;7.50;43.32
40872;BME280;26591;43.264;26.940;2024-01-15T07:25:20;98254.47;;;7.57;43.31
40872;BME280;26591;43.264;26.940;2024-01-15T07:27:46;98253.66;;;7.57;43.00
40872;BME280;26591;43.264;26.940;2024-01-15T07:30:13;98258.94;;;7.48;43.41
40872;BME280;26591;43.264;26.940;2024-01-15T07:32:39;98261.41;;;7.33;43.34
40872;BME280;26591;43.264;26.940;2024-01-15T07:35:04;98256.94;;;7.51;42.87
40872;BME280;26591;43.264;26.940;2024-01-15T07:37:31;98256.63;;;7.37;42.40
40872;BME280;26591;43.264;26.940;2024-01-15T07:39:56;98251.34;;;7.21;42.94
40872;BME280;26591;43.264;26.940;2024-01-15T07:42:22;98249.91;;;7.26;42.98
40872;BME280;26591;43.264;26.940;2024-01-15T07:44:47;98253.19;;;7.37;43.04
40872;BME280;26591;43.264;26.940;2024-01-15T07:47:13;98251.00;;;7.65;42.26
40872;BME280;26591;43.264;26.940;2024-01-15T07:49:38;98248.03;;;7.93;42.34
40872;BME280;26591;43.264;26.940;2024-01-15T07:52:04;98245.44;;;8.16;41.76
40872;BME280;26591;43.264;26.940;2024-01-15T07:54:31;98243.06;;;8.38;41.33
40872;BME280;26591;43.264;26.940;2024-01-15T07:56:59;98235.81;;;8.48;40.52
40872;BME280;26591;43.264;26.940;2024-01-15T07:59:30;98240.97;;;8.25;41.28
40872;BME280;26591;43.264;26.940;2024-01-15T08:01:55;98240.31;;;8.31;40.53
40872;BME280;26591;43.264;26.940;2024-01-15T08:04:21;98241.63;;;8.35;41.12
40872;BME280;26591;43.264;26.940;2024-01-15T08:06:47;98246.22;;;8.33;41.26
40872;BME280;26591;43.264;26.940;2024-01-15T08:09:13;98239.94;;;8.51;40.63
40872;BME280;26591;43.264;26.940;2024-01-15T08:11:42;98231.19;;;8.82;39.35
40872;BME280;26591;43.264;26.940;2024-01-15T08:14:09;98229.75;;;8.71;39.85
40872;BME280;26591;43.264;26.940;2024-01-15T08:16:35;98227.25;;;8.78;39.30
40872;BME280;26591;43.264;26.940;2024-01-15T08:19:00;98225.78;;;8.98;39.12
40872;BME280;26591;43.264;26.940;2024-01-15T08:21:28;98227.41;;;9.23;39.69
40872;BME280;26591;43.264;26.940;2024-01-15T08:23:56;98232.06;;;9.21;39.02
40872;BME280;26591;43.264;26.940;2024-01-15T08:26:25;98240.03;;;9.12;38.58
40872;BME280;26591;43.264;26.940;2024-01-15T08:28:50;98225.31;;;7.75;39.80
40872;BME280;26591;43.264;26.940;2024-01-15T08:31:16;98224.22;;;7.28;41.27
40872;BME280;26591;43.264;26.940;2024-01-15T08:33:42;98216.16;;;7.46;40.88
40872;BME280;26591;43.264;26.940;2024-01-15T08:36:07;98213.53;;;7.13;41.23
40872;BME280;26591;43.264;26.940;2024-01-15T08:38:34;98217.28;;;7.69;40.84
40872;BME280;26591;43.264;26.940;2024-01-15T08:41:00;98217.03;;;8.03;41.60
40872;BME280;26591;43.264;26.940;2024-01-15T08:43:28;98214.69;;;7.11;40.93
40872;BME280;26591;43.264;26.940;2024-01-15T08:45:53;98220.44;;;7.31;40.99
40872;BME280;26591;43.264;26.940;2024-01-15T08:48:19;98218.72;;;7.79;41.61
40872;BME280;26591;43.264;26.940;2024-01-15T08:50:45;98213.91;;;8.00;38.64
40872;BME280;26591;43.264;26.940;2024-01-15T08:53:14;98211.13;;;7.93;39.22
40872;BME280;26591;43.264;26.940;2024-01-15T08:55:40;98205.72;;;8.26;39.37
40872;BME280;26591;43.264;26.940;2024-01-15T08:58:07;98197.81;;;8.26;39.12
40872;BME280;26591;43.264;26.940;2024-01-15T09:00:33;98199.59;;;8.34;38.70
40872;BME280;26591;43.264;26.940;2024-01-15T09:02:59;98194.94;;;8.04;39.69
40872;BME280;26591;43.264;26.940;2024-01-15T09:05:24;98189.16;;;8.49;39.23
40872;BME280;26591;43.264;26.940;2024-01-15T09:07:50;98177.75;;;8.17;39.62
40872;BME280;26591;43.264;26.940;2024-01-15T09:10:18;98178.47;;;7.54;40.31
40872;BME280;26591;43.264;26.940;2024-01-15T09:12:43;98178.13;;;7.49;40.47
40872;BME280;26591;43.264;26.940;2024-01-15T09:15:09;98176.16;;;7.43;40.42
40872;BME280;26591;43.264;26.940;2024-01-15T09:17:37;98175.38;;;7.17;41.42
40872;BME280;26591;43.264;26.940;2024-01-15T09:20:02;98152.31;;;7.36;41.06
40872;BME280;26591;43.264;26.940;2024-01-15T09:22:30;98151.59;;;7.67;40.46
40872;BME280;26591;43.264;26.940;2024-01-15T09:24:55;98146.06;;;7.37;41.24
40872;BME280;26591;43.264;26.940;2024-01-15T09:27:21;98145.63;;;6.92;41.55
40872;BME280;26591;43.264;26.940;2024-01-15T09:29:46;98143.13;;;7.07;42.77
40872;BME280;26591;43.264;26.940;2024-01-15T09:32:12;98148.69;;;7.45;42.21
40872;BME280;26591;43.264;26.940;2024-01-15T09:34:38;98144.00;;;7.72;41.70
40872;BME280;26591;43.264;26.940;2024-01-15T09:37:04;98136.47;;;7.53;41.93
40872;BME280;26591;43.264;26.940;2024-01-15T09:39:32;98137.25;;;6.89;42.73
40872;BME280;26591;43.264;26.940;2024-01-15T09:42:00;98123.06;;;6.48;44.41
40872;BME280;26591;43.264;26.940;2024-01-15T09:44:28;98104.38;;;6.76;43.27
40872;BME280;26591;43.264;26.940;2024-01-15T09:46:55;98103.03;;;6.31;43.98
40872;BME280;26591;43.264;26.940;2024-01-15T09:49:21;98090.06;;;6.46;44.82
40872;BME280;26591;43.264;26.940;2024-01-15T09:51:47;98091.88;;;6.45;45.03
40872;BME280;26591;43.264;26.940;2024-01-15T09:54:12;98095.59;;;6.18;45.73
40872;BME280;26591;43.264;26.940;2024-01-15T09:56:40;98097.59;;;6.40;45.22
40872;BME280;26591;43.264;26.940;2024-01-15T09:59:06;98091.69;;;6.88;44.23
40872;BME280;26591;43.264;26.940;2024-01-15T10:01:33;98086.44;;;6.96;43.88
40872;BME280;26591;43.264;26.940;2024-01-15T10:04:01;98082.44;;;7.17;43.81
40872;BME280;26591;43.264;26.940;2024-01-15T10:06:27;98071.22;;;7.31;44.42
40872;BME280;26591;43.264;26.940;2024-01-15T10:08:56;98063.59;;;6.80;45.22
40872;BME280;26591;43.264;26.940;2024-01-15T10:11:23;98057.25;;;7.23;44.18
40872;BME280;26591;43.264;26.940;2024-01-15T10:13:49;98053.44;;;7.42;44.66
40872;BME280;26591;43.264;26.940;2024-01-15T10:16:22;98051.78;;;7.81;43.53
40872;BME280;26591;43.264;26.940;2024-01-15T10:18:49;98052.81;;;8.03;42.55
40872;BME280;26591;43.264;26.940;2024-01-15T10:21:15;98044.44;;;7.99;42.49
40872;BME280;26591;43.264;26.940;2024-01-15T10:23:41;98031.44;;;7.98;42.52
40872;BME280;26591;43.264;26.940;2024-01-15T10:26:07;98034.56;;;8.24;42.51
40872;BME280;26591;43.264;26.940;2024-01-15T10:28:32;98028.59;;;8.07;41.88
40872;BME280;26591;43.264;26.940;2024-01-15T10:30:59;98018.84;;;8.31;40.95
40872;BME280;26591;43.264;26.940;2024-01-15T10:33:24;98010.72;;;8.64;40.85
40872;BME280;26591;43.264;26.940;2024-01-15T10:35:54;98008.22;;;9.01;40.01
40872;BME280;26591;43.264;26.940;2024-01-15T10:38:24;98000.91;;;9.18;39.89
40872;BME280;26591;43.264;26.940;2024-01-15T10:40:54;97988.81;;;9.09;40.25
40872;BME280;26591;43.264;26.940;2024-01-15T10:43:20;97983.91;;;9.06;39.08
40872;BME280;26591;43.264;26.940;2024-01-15T10:45:49;97979.44;;;9.06;39.20
40872;BME280;26591;43.264;26.940;2024-01-15T10:48:16;97986.16;;;8.94;39.51
40872;BME280;26591;43.264;26.940;2024-01-15T10:50:44;97983.16;;;9.12;39.73
40872;BME280;26591;43.264;26.940;2024-01-15T10:53:11;97983.53;;;9.39;39.46
40872;BME280;26591;43.264;26.940;2024-01-15T10:55:38;97984.84;;;9.50;38.43
40872;BME280;26591;43.264;26.940;2024-01-15T10:58:05;97987.41;;;9.58;39.51
40872;BME280;26591;43.264;26.940;2024-01-15T11:00:33;97973.28;;;9.51;39.39
40872;BME280;26591;43.264;26.940;2024-01-15T11:03:01;97965.13;;;9.30;39.23
40872;BME280;26591;43.264;26.940;2024-01-15T11:05:27;97967.03;;;9.37;39.87
40872;BME280;26591;43.264;26.940;2024-01-15T11:07:58;97962.78;;;9.57;39.67
40872;BME280;26591;43.264;26.940;2024-01-15T11:10:57;97959.88;;;9.00;41.03
40872;BME280;26591;43.264;26.940;2024-01-15T11:16:02;97946.66;;;8.70;41.36
40872;BME280;26591;43.264;26.940;2024-01-15T11:18:41;97944.69;;;8.73;41.58
40872;BME280;26591;43.264;26.940;2024-01-15T11:23:51;97943.22;;;9.00;41.33
40872;BME280;26591;43.264;26.940;2024-01-15T11:29:07;97929.69;;;9.03;42.02
40872;BME280;26591;43.264;26.940;2024-01-15T11:34:05;97924.31;;;8.96;41.21
40872;BME280;26591;43.264;26.940;2024-01-15T11:41:54;97928.22;;;8.55;41.43
40872;BME280;26591;43.264;26.940;2024-01-15T11:44:21;97918.13;;;8.74;41.58
40872;BME280;26591;43.264;26.940;2024-01-15T11:46:57;97913.75;;;8.96;41.54
40872;BME280;26591;43.264;26.940;2024-01-15T11:52:01;97904.38;;;8.94;41.57
40872;BME280;26591;43.264;26.940;2024-01-15T11:54:32;97908.88;;;9.30;41.33
40872;BME280;26591;43.264;26.940;2024-01-15T11:57:04;97902.94;;;8.91;41.47
40872;BME280;26591;43.264;26.940;2024-01-15T11:59:34;97894.72;;;8.86;41.68
40872;BME280;26591;43.264;26.940;2024-01-15T12:02:01;97888.69;;;9.22;41.77
40872;BME280;26591;43.264;26.940;2024-01-15T12:04:27;97884.56;;;9.20;41.89
40872;BME280;26591;43.264;26.940;2024-01-15T12:06:52;97880.34;;;9.04;42.92
40872;BME280;26591;43.264;26.940;2024-01-15T12:09:21;97878.19;;;8.62;42.52
40872;BME280;26591;43.264;26.940;2024-01-15T12:11:54;97879.47;;;8.66;43.21
40872;BME280;26591;43.264;26.940;2024-01-15T12:14:24;97876.47;;;8.84;42.98
40872;BME280;26591;43.264;26.940;2024-01-15T12:16:50;97878.25;;;8.99;43.13
40872;BME280;26591;43.264;26.940;2024-01-15T12:19:16;97880.44;;;8.95;42.89
40872;BME280;26591;43.264;26.940;2024-01-15T12:21:41;97879.81;;;8.93;42.37
40872;BME280;26591;43.264;26.940;2024-01-15T12:24:19;97883.41;;;9.07;42.54
40872;BME280;26591;43.264;26.940;2024-01-15T12:26:44;97877.41;;;8.98;42.66
40872;BME280;26591;43.264;26.940;2024-01-15T12:29:11;97880.97;;;9.06;42.82
40872;BME280;26591;43.264;26.940;2024-01-15T12:31:36;97873.41;;;9.18;43.36
40872;BME280;26591;43.264;26.940;2024-01-15T12:34:02;97883.50;;;9.51;42.65
40872;BME280;26591;43.264;26.940;2024-01-15T12:36:31;97864.88;;;9.81;41.66
40872;BME280;26591;43.264;26.940;2024-01-15T12:39:00;97865.56;;;9.89;41.52
40872;BME280;26591;43.264;26.940;2024-01-15T12:41:25;97859.31;;;9.69;41.82
40872;BME280;26591;43.264;26.940;2024-01-15T12:43:51;97852.13;;;9.84;41.37
40872;BME280;26591;43.264;26.940;2024-01-15T12:46:16;97839.56;;;9.93;41.36
40872;BME280;26591;43.264;26.940;2024-01-15T12:48:42;97843.72;;;10.02;41.13
40872;BME280;26591;43.264;26.940;2024-01-15T12:51:08;97841.91;;;10.10;41.20
40872;BME280;26591;43.264;26.940;2024-01-15T12:53:33;97839.50;;;9.86;43.03
40872;BME280;26591;43.264;26.940;2024-01-15T12:55:59;97840.25;;;10.02;42.89
40872;BME280;26591;43.264;26.940;2024-01-15T12:58:25;97842.84;;;10.23;42.36
40872;BME280;26591;43.264;26.940;2024-01-15T13:00:50;97839.22;;;10.31;42.40
40872;BME280;26591;43.264;26.940;2024-01-15T13:03:16;97847.41;;;10.08;44.03
40872;BME280;26591;43.264;26.940;2024-01-15T13:05:42;97850.47;;;9.61;44.23
40872;BME280;26591;43.264;26.940;2024-01-15T13:08:07;97847.22;;;9.59;44.14
40872;BME280;26591;43.264;26.940;2024-01-15T13:10:33;97837.75;;;9.28;45.57
40872;BME280;26591;43.264;26.940;2024-01-15T13:13:00;97827.91;;;9.37;45.08
40872;BME280;26591;43.264;26.940;2024-01-15T13:15:57;97828.13;;;9.21;45.71
40872;BME280;26591;43.264;26.940;2024-01-15T13:18:23;97834.25;;;9.43;45.80
40872;BME280;26591;43.264;26.940;2024-01-15T13:20:49;97821.44;;;9.40;45.61
40872;BME280;26591;43.264;26.940;2024-01-15T13:23:15;97822.13;;;9.27;46.07